Station Historical Data
Daily Summary for August 22, 2017 Units:  English    Metric   Both
Next Day »
Daily Weekly Monthly Yearly Custom
  High: Low: Average:
Temperature: 85.7 °F 69.5 °F 76.2 °F
Dew Point: 62.1 °F 51.3 °F 57.8 °F
Humidity: 68% 41% 53%
Wind Speed: 13.0mph 0.0mph 1.7mph
Wind Gust: 20.0mph - -
Wind- - SSE
Pressure: 30.00 in 29.92 in -
Precipitation: 0.00 in    
Historical Graphs
 
 
Tabular Data for August 22, 2017
Time Temperature Dew Point Pressure Wind Wind Speed Wind Gust Humidity Rainfall Rate (Hourly) solar Conditions
00:04 71.3 °F 56.7 °F 29.94 in Calm   7.0 mph 60% 0.00 in 0.00 W/m2
00:09 71.2 °F 56.6 °F 29.95 in East 4.0 mph 4.0 mph 60% 0.00 in 0.00 W/m2
00:14 71.2 °F 56.6 °F 29.94 in Calm   4.0 mph 60% 0.00 in 0.00 W/m2
00:19 71.1 °F 56.5 °F 29.94 in East 3.0 mph 5.0 mph 60% 0.00 in 0.00 W/m2
00:24 71.0 °F 56.0 °F 29.95 in East 4.0 mph 7.0 mph 59% 0.00 in 0.00 W/m2
00:29 71.0 °F 56.0 °F 29.95 in Calm   6.0 mph 59% 0.00 in 0.00 W/m2
00:34 71.0 °F 55.5 °F 29.95 in Calm   4.0 mph 58% 0.00 in 0.00 W/m2
00:39 71.0 °F 55.5 °F 29.95 in Calm   6.0 mph 58% 0.00 in 0.00 W/m2
00:45 71.0 °F 55.0 °F 29.95 in East 1.0 mph 6.0 mph 57% 0.00 in 0.00 W/m2
00:50 71.0 °F 55.0 °F 29.95 in Calm   8.0 mph 57% 0.00 in 0.00 W/m2
00:55 71.0 °F 55.0 °F 29.95 in Calm   7.0 mph 57% 0.00 in 0.00 W/m2
00:56 71.0 °F 55.0 °F 29.95 in East 5.0 mph 5.0 mph 57% 0.00 in 0.00 W/m2
01:01 71.1 °F 55.1 °F 29.94 in Calm     57% 0.00 in 0.00 W/m2
01:06 71.1 °F 55.6 °F 29.95 in East 5.0 mph 5.0 mph 58% 0.00 in 0.00 W/m2
01:11 71.2 °F 55.7 °F 29.94 in East 6.0 mph 7.0 mph 58% 0.00 in 0.00 W/m2
01:16 71.2 °F 55.7 °F 29.94 in Calm     58% 0.00 in 0.00 W/m2
01:21 71.2 °F 55.7 °F 29.94 in East 5.0 mph 9.0 mph 58% 0.00 in 0.00 W/m2
01:26 71.3 °F 55.8 °F 29.94 in East 4.0 mph 8.0 mph 58% 0.00 in 0.00 W/m2
01:31 71.3 °F 55.8 °F 29.94 in East 2.0 mph 6.0 mph 58% 0.00 in 0.00 W/m2
01:36 71.4 °F 55.4 °F 29.94 in Calm   7.0 mph 57% 0.00 in 0.00 W/m2
01:41 71.4 °F 55.4 °F 29.95 in Calm   7.0 mph 57% 0.00 in 0.00 W/m2
01:46 71.4 °F 54.9 °F 29.94 in Calm   11.0 mph 56% 0.00 in 0.00 W/m2
01:51 71.5 °F 55.0 °F 29.94 in East 4.0 mph 7.0 mph 56% 0.00 in 0.00 W/m2
01:56 71.5 °F 54.5 °F 29.94 in East 1.0 mph 6.0 mph 55% 0.00 in 0.00 W/m2
02:01 71.5 °F 54.5 °F 29.94 in ESE 9.0 mph 12.0 mph 55% 0.00 in 0.00 W/m2
02:06 71.5 °F 54.5 °F 29.95 in Calm   1.0 mph 55% 0.00 in 0.00 W/m2
02:11 71.6 °F 54.1 °F 29.94 in ESE 4.0 mph 8.0 mph 54% 0.00 in 0.00 W/m2
02:16 71.6 °F 54.6 °F 29.94 in East 6.0 mph 11.0 mph 55% 0.00 in 0.00 W/m2
02:21 71.7 °F 54.7 °F 29.95 in Calm   6.0 mph 55% 0.00 in 0.00 W/m2
02:27 71.7 °F 54.2 °F 29.95 in East 5.0 mph 11.0 mph 54% 0.00 in 0.00 W/m2
02:32 71.8 °F 54.3 °F 29.95 in ESE 8.0 mph 12.0 mph 54% 0.00 in 0.00 W/m2
02:37 71.8 °F 54.3 °F 29.95 in East 7.0 mph 8.0 mph 54% 0.00 in 0.00 W/m2
02:42 71.9 °F 54.4 °F 29.95 in ESE 6.0 mph 12.0 mph 54% 0.00 in 0.00 W/m2
02:47 72.0 °F 54.0 °F 29.95 in Calm   8.0 mph 53% 0.00 in 0.00 W/m2
02:52 72.0 °F 54.0 °F 29.94 in Calm     53% 0.00 in 0.00 W/m2
02:57 72.1 °F 54.0 °F 29.94 in Calm   1.0 mph 53% 0.00 in 0.00 W/m2
03:02 72.1 °F 54.0 °F 29.95 in Calm     53% 0.00 in 0.00 W/m2
03:07 72.2 °F 54.1 °F 29.95 in ESE 2.0 mph 9.0 mph 53% 0.00 in 0.00 W/m2
03:12 72.2 °F 54.1 °F 29.96 in ESE 12.0 mph 20.0 mph 53% 0.00 in 0.00 W/m2
03:17 72.2 °F 53.6 °F 29.96 in East 8.0 mph 13.0 mph 52% 0.00 in 0.00 W/m2
03:22 72.2 °F 53.6 °F 29.96 in ESE 11.0 mph 15.0 mph 52% 0.00 in 0.00 W/m2
03:27 72.3 °F 53.7 °F 29.96 in ESE 1.0 mph 13.0 mph 52% 0.00 in 0.00 W/m2
03:32 72.2 °F 53.6 °F 29.96 in ESE 9.0 mph 12.0 mph 52% 0.00 in 0.00 W/m2
03:37 72.2 °F 53.6 °F 29.96 in Calm   9.0 mph 52% 0.00 in 0.00 W/m2
03:42 72.2 °F 53.6 °F 29.96 in Calm   9.0 mph 52% 0.00 in 0.00 W/m2
03:47 72.2 °F 53.1 °F 29.96 in ESE 2.0 mph 8.0 mph 51% 0.00 in 0.00 W/m2
03:52 72.2 °F 53.1 °F 29.96 in East 8.0 mph 11.0 mph 51% 0.00 in 0.00 W/m2
03:57 72.2 °F 53.1 °F 29.96 in Calm   7.0 mph 51% 0.00 in 0.00 W/m2
04:02 72.2 °F 53.1 °F 29.96 in East 4.0 mph 5.0 mph 51% 0.00 in 0.00 W/m2
04:07 72.2 °F 53.1 °F 29.95 in East 6.0 mph 6.0 mph 51% 0.00 in 0.00 W/m2
04:12 72.2 °F 53.1 °F 29.95 in Calm   8.0 mph 51% 0.00 in 0.00 W/m2
04:17 72.2 °F 53.1 °F 29.95 in East 2.0 mph 14.0 mph 51% 0.00 in 0.00 W/m2
04:22 72.2 °F 52.5 °F 29.96 in ESE 1.0 mph 14.0 mph 50% 0.00 in 0.00 W/m2
04:27 72.2 °F 53.1 °F 29.96 in East 5.0 mph 14.0 mph 51% 0.00 in 0.00 W/m2
04:32 72.2 °F 52.5 °F 29.96 in East 6.0 mph 12.0 mph 50% 0.00 in 0.00 W/m2
04:37 72.3 °F 52.1 °F 29.95 in East 6.0 mph 16.0 mph 49% 0.00 in 0.00 W/m2
04:42 72.3 °F 52.1 °F 29.95 in ESE 6.0 mph 14.0 mph 49% 0.00 in 0.00 W/m2
04:47 72.4 °F 51.6 °F 29.96 in ESE 12.0 mph 15.0 mph 48% 0.00 in 0.00 W/m2
04:52 72.6 °F 51.8 °F 29.96 in ESE 13.0 mph 15.0 mph 48% 0.00 in 0.00 W/m2
04:57 72.8 °F 52.0 °F 29.96 in East 1.0 mph 18.0 mph 48% 0.00 in 0.00 W/m2
05:02 72.9 °F 52.1 °F 29.96 in ESE 1.0 mph 11.0 mph 48% 0.00 in 0.00 W/m2
05:07 72.9 °F 53.7 °F 29.96 in East 2.0 mph 4.0 mph 51% 0.00 in 0.00 W/m2
05:12 72.8 °F 55.2 °F 29.95 in East 3.0 mph 3.0 mph 54% 0.00 in 0.00 W/m2
05:17 72.4 °F 55.3 °F 29.95 in Calm   2.0 mph 55% 0.00 in 0.00 W/m2
05:22 72.0 °F 54.5 °F 29.95 in East 1.0 mph 1.0 mph 54% 0.00 in 0.00 W/m2
05:27 71.8 °F 54.3 °F 29.95 in East 1.0 mph 1.0 mph 54% 0.00 in 0.00 W/m2
05:32 71.6 °F 53.6 °F 29.95 in Calm   2.0 mph 53% 0.00 in 0.00 W/m2
05:37 71.5 °F 53.5 °F 29.94 in Calm   1.0 mph 53% 0.00 in 0.00 W/m2
05:42 71.5 °F 52.4 °F 29.94 in NE 1.0 mph 1.0 mph 51% 0.00 in 0.00 W/m2
05:47 71.7 °F 52.1 °F 29.94 in Calm   1.0 mph 50% 0.00 in 0.00 W/m2
05:52 71.9 °F 51.7 °F 29.94 in Calm   1.0 mph 49% 0.00 in 0.00 W/m2
05:57 72.0 °F 51.3 °F 29.94 in Calm     48% 0.00 in 0.00 W/m2
06:02 72.1 °F 51.3 °F 29.94 in Calm     48% 0.00 in 0.00 W/m2
06:07 72.4 °F 52.2 °F 29.94 in Calm     49% 0.00 in 0.00 W/m2
06:12 72.5 °F 52.3 °F 29.95 in Calm     49% 0.00 in 0.00 W/m2
06:18 72.6 °F 52.9 °F 29.95 in Calm   1.0 mph 50% 0.00 in 0.00 W/m2
06:23 72.6 °F 52.9 °F 29.96 in Calm   1.0 mph 50% 0.00 in 0.00 W/m2
06:28 72.6 °F 52.4 °F 29.95 in Calm     49% 0.00 in 0.00 W/m2
06:34 72.6 °F 52.9 °F 29.96 in Calm   1.0 mph 50% 0.00 in 0.00 W/m2
06:39 72.6 °F 52.9 °F 29.96 in ESE 1.0 mph 13.0 mph 50% 0.00 in 5.00 W/m2
06:44 72.5 °F 53.4 °F 29.96 in East 7.0 mph 13.0 mph 51% 0.00 in 7.00 W/m2
06:49 72.4 °F 53.3 °F 29.96 in East 1.0 mph 16.0 mph 51% 0.00 in 7.00 W/m2
06:54 72.4 °F 53.3 °F 29.97 in Calm   4.0 mph 51% 0.00 in 7.00 W/m2
06:59 72.4 °F 53.3 °F 29.97 in East 1.0 mph 18.0 mph 51% 0.00 in 7.00 W/m2
07:04 72.4 °F 53.3 °F 29.96 in Calm   1.0 mph 51% 0.00 in 11.00 W/m2
07:09 72.4 °F 54.3 °F 29.96 in Calm     53% 0.00 in 18.00 W/m2
07:14 72.3 °F 58.1 °F 29.96 in Calm   1.0 mph 61% 0.00 in 28.00 W/m2
07:19 72.1 °F 58.8 °F 29.96 in East 1.0 mph 1.0 mph 63% 0.00 in 79.00 W/m2
07:24 71.8 °F 59.0 °F 29.97 in Calm   1.0 mph 64% 0.00 in 44.00 W/m2
07:29 71.3 °F 58.5 °F 29.97 in Calm   1.0 mph 64% 0.00 in 51.00 W/m2
07:34 70.8 °F 58.5 °F 29.97 in Calm   1.0 mph 65% 0.00 in 49.00 W/m2
07:39 70.1 °F 58.2 °F 29.97 in Calm   1.0 mph 66% 0.00 in 37.00 W/m2
07:44 69.8 °F 58.4 °F 29.97 in Calm   1.0 mph 67% 0.00 in 37.00 W/m2
07:49 69.6 °F 58.2 °F 29.97 in Calm   1.0 mph 67% 0.00 in 42.00 W/m2
07:54 69.5 °F 58.5 °F 29.97 in Calm     68% 0.00 in 49.00 W/m2
07:59 69.5 °F 57.2 °F 29.98 in Calm     65% 0.00 in 58.00 W/m2
08:04 69.5 °F 57.7 °F 29.98 in Calm   1.0 mph 66% 0.00 in 69.00 W/m2
08:09 69.5 °F 57.7 °F 29.99 in Calm   1.0 mph 66% 0.00 in 86.00 W/m2
08:14 69.5 °F 57.2 °F 29.98 in Calm   2.0 mph 65% 0.00 in 109.00 W/m2
08:19 69.5 °F 57.2 °F 29.98 in Calm   2.0 mph 65% 0.00 in 116.00 W/m2
08:24 69.5 °F 57.2 °F 29.98 in Calm   2.0 mph 65% 0.00 in 121.00 W/m2
08:29 69.5 °F 57.2 °F 29.98 in Calm     65% 0.00 in 160.00 W/m2
08:34 69.5 °F 57.7 °F 29.98 in SSE 1.0 mph 2.0 mph 66% 0.00 in 185.00 W/m2
08:39 69.5 °F 58.1 °F 29.99 in Calm   2.0 mph 67% 0.00 in 186.00 W/m2
08:44 69.7 °F 58.3 °F 29.98 in Calm   1.0 mph 67% 0.00 in 172.00 W/m2
08:49 69.7 °F 57.8 °F 29.98 in Calm     66% 0.00 in 165.00 W/m2
08:54 69.8 °F 57.9 °F 29.98 in Calm     66% 0.00 in 167.00 W/m2
08:59 69.9 °F 58.5 °F 29.98 in Calm     67% 0.00 in 209.00 W/m2
09:04 70.1 °F 58.7 °F 29.99 in SSE 1.0 mph 4.0 mph 67% 0.00 in 225.00 W/m2
09:09 70.2 °F 57.9 °F 29.99 in Calm   2.0 mph 65% 0.00 in 234.00 W/m2
09:15 70.3 °F 57.1 °F 29.99 in SSE 2.0 mph 4.0 mph 63% 0.00 in 281.00 W/m2
09:20 70.6 °F 57.4 °F 29.99 in SSE 2.0 mph 6.0 mph 63% 0.00 in 230.00 W/m2
09:25 70.8 °F 57.2 °F 29.99 in Calm   2.0 mph 62% 0.00 in 221.00 W/m2
09:30 71.1 °F 57.0 °F 29.99 in South 4.0 mph 5.0 mph 61% 0.00 in 241.00 W/m2
09:35 71.4 °F 57.3 °F 29.99 in SSE 2.0 mph 5.0 mph 61% 0.00 in 735.00 W/m2
09:40 71.6 °F 57.0 °F 29.99 in SSE 2.0 mph 6.0 mph 60% 0.00 in 570.00 W/m2
09:45 71.9 °F 57.3 °F 29.99 in South 6.0 mph 7.0 mph 60% 0.00 in 464.00 W/m2
09:50 72.2 °F 57.1 °F 29.99 in South 8.0 mph 9.0 mph 59% 0.00 in 636.00 W/m2
09:55 72.6 °F 57.5 °F 29.99 in SSE 4.0 mph 9.0 mph 59% 0.00 in 628.00 W/m2
10:00 73.0 °F 57.4 °F 29.99 in South 1.0 mph 9.0 mph 58% 0.00 in 629.00 W/m2
10:05 73.6 °F 57.4 °F 29.99 in Calm   5.0 mph 57% 0.00 in 629.00 W/m2
10:10 74.1 °F 57.9 °F 30.00 in South 1.0 mph 8.0 mph 57% 0.00 in 640.00 W/m2
10:15 74.6 °F 57.9 °F 30.00 in South 1.0 mph 9.0 mph 56% 0.00 in 652.00 W/m2
10:20 75.0 °F 58.3 °F 30.00 in South 6.0 mph 6.0 mph 56% 0.00 in 661.00 W/m2
10:25 75.4 °F 57.6 °F 30.00 in South 2.0 mph 7.0 mph 54% 0.00 in 671.00 W/m2
10:30 75.8 °F 58.0 °F 30.00 in Calm   7.0 mph 54% 0.00 in 684.00 W/m2
10:35 76.1 °F 58.3 °F 30.00 in SSE 5.0 mph 5.0 mph 54% 0.00 in 694.00 W/m2
10:40 76.5 °F 59.2 °F 30.00 in South 1.0 mph 9.0 mph 55% 0.00 in 701.00 W/m2
10:45 77.0 °F 58.6 °F 30.00 in SSW 2.0 mph 4.0 mph 53% 0.00 in 712.00 W/m2
10:50 77.5 °F 59.0 °F 30.00 in SSW 7.0 mph 7.0 mph 53% 0.00 in 719.00 W/m2
10:55 77.8 °F 58.8 °F 30.00 in SSW 2.0 mph 9.0 mph 52% 0.00 in 729.00 W/m2
11:00 78.1 °F 58.0 °F 30.00 in SSW 1.0 mph 9.0 mph 50% 0.00 in 737.00 W/m2
11:05 78.4 °F 58.2 °F 30.00 in SW 3.0 mph 7.0 mph 50% 0.00 in 745.00 W/m2
11:10 78.8 °F 58.6 °F 30.00 in Calm   8.0 mph 50% 0.00 in 756.00 W/m2
11:15 79.2 °F 59.0 °F 30.00 in South 6.0 mph 6.0 mph 50% 0.00 in 761.00 W/m2
11:20 79.4 °F 59.2 °F 30.00 in SSW 3.0 mph 6.0 mph 50% 0.00 in 773.00 W/m2
11:25 79.8 °F 59.0 °F 30.00 in Calm   7.0 mph 49% 0.00 in 777.00 W/m2
11:30 80.2 °F 59.3 °F 30.00 in Calm   5.0 mph 49% 0.00 in 782.00 W/m2
11:35 80.5 °F 59.0 °F 30.00 in Calm   9.0 mph 48% 0.00 in 786.00 W/m2
11:40 80.9 °F 59.4 °F 30.00 in Calm   5.0 mph 48% 0.00 in 796.00 W/m2
11:45 81.2 °F 59.1 °F 30.00 in Calm   7.0 mph 47% 0.00 in 802.00 W/m2
11:50 81.6 °F 58.8 °F 30.00 in SSW 6.0 mph 11.0 mph 46% 0.00 in 809.00 W/m2
11:55 81.9 °F 58.5 °F 30.00 in SSE 1.0 mph 8.0 mph 45% 0.00 in 810.00 W/m2
12:00 82.3 °F 60.1 °F 30.00 in SW 5.0 mph 5.0 mph 47% 0.00 in 814.00 W/m2
12:05 82.7 °F 59.8 °F 30.00 in Calm   9.0 mph 46% 0.00 in 824.00 W/m2
12:10 82.9 °F 60.0 °F 30.00 in Calm   3.0 mph 46% 0.00 in 824.00 W/m2
12:15 82.9 °F 60.0 °F 29.99 in West 4.0 mph 7.0 mph 46% 0.00 in 830.00 W/m2
12:17 82.8 °F 59.3 °F 29.99 in West 2.0 mph 7.0 mph 45% 0.00 in 828.00 W/m2
12:22 82.8 °F 59.9 °F 29.99 in West 5.0 mph 11.0 mph 46% 0.00 in 831.00 W/m2
12:27 82.9 °F 60.0 °F 29.99 in Calm   6.0 mph 46% 0.00 in 835.00 W/m2
12:32 83.2 °F 59.7 °F 29.99 in WSW 1.0 mph 2.0 mph 45% 0.00 in 840.00 W/m2
12:37 83.2 °F 60.3 °F 29.99 in WSW 8.0 mph 9.0 mph 46% 0.00 in 844.00 W/m2
12:42 83.5 °F 59.9 °F 29.99 in SSW 2.0 mph 9.0 mph 45% 0.00 in 838.00 W/m2
12:47 83.9 °F 60.3 °F 29.99 in SW 4.0 mph 7.0 mph 45% 0.00 in 840.00 W/m2
12:52 84.3 °F 60.0 °F 29.98 in WSW 4.0 mph 4.0 mph 44% 0.00 in 842.00 W/m2
12:57 84.6 °F 60.3 °F 29.98 in Calm   3.0 mph 44% 0.00 in 849.00 W/m2
13:02 84.8 °F 60.5 °F 29.98 in Calm   4.0 mph 44% 0.00 in 840.00 W/m2
13:07 84.7 °F 59.8 °F 29.98 in Calm     43% 0.00 in 842.00 W/m2
13:12 84.5 °F 60.2 °F 29.98 in SW 1.0 mph 7.0 mph 44% 0.00 in 847.00 W/m2
13:17 84.8 °F 59.8 °F 29.98 in SW 5.0 mph 10.0 mph 43% 0.00 in 842.00 W/m2
13:22 84.9 °F 59.9 °F 29.98 in WSW 2.0 mph 4.0 mph 43% 0.00 in 840.00 W/m2
13:27 84.7 °F 59.8 °F 29.98 in Calm   7.0 mph 43% 0.00 in 846.00 W/m2
13:32 84.5 °F 60.2 °F 29.98 in WSW 5.0 mph 6.0 mph 44% 0.00 in 842.00 W/m2
13:37 84.5 °F 59.6 °F 29.98 in Calm   1.0 mph 43% 0.00 in 837.00 W/m2
13:42 84.4 °F 60.1 °F 29.98 in WSW 1.0 mph 6.0 mph 44% 0.00 in 840.00 W/m2
13:47 84.6 °F 59.7 °F 29.98 in WSW 1.0 mph 3.0 mph 43% 0.00 in 837.00 W/m2
13:52 84.7 °F 60.4 °F 29.98 in South 6.0 mph 13.0 mph 44% 0.00 in 833.00 W/m2
13:57 84.9 °F 59.9 °F 29.98 in WSW 2.0 mph 4.0 mph 43% 0.00 in 830.00 W/m2
14:02 84.9 °F 59.9 °F 29.97 in Calm   3.0 mph 43% 0.00 in 826.00 W/m2
14:07 84.8 °F 59.8 °F 29.97 in WNW 2.0 mph 6.0 mph 43% 0.00 in 826.00 W/m2
14:12 84.9 °F 59.9 °F 29.97 in Calm   1.0 mph 43% 0.00 in 823.00 W/m2
14:17 85.0 °F 60.0 °F 29.97 in Calm   4.0 mph 43% 0.00 in 814.00 W/m2
14:22 85.0 °F 60.7 °F 29.97 in WSW 4.0 mph 4.0 mph 44% 0.00 in 812.00 W/m2
14:27 85.5 °F 59.8 °F 29.97 in WNW 7.0 mph 8.0 mph 42% 0.00 in 805.00 W/m2
14:33 85.7 °F 60.0 °F 29.96 in Calm   4.0 mph 42% 0.00 in 796.00 W/m2
14:38 85.5 °F 59.8 °F 29.96 in WSW 3.0 mph 6.0 mph 42% 0.00 in 786.00 W/m2
14:43 85.5 °F 59.8 °F 29.96 in Calm   6.0 mph 42% 0.00 in 780.00 W/m2
14:48 85.4 °F 59.7 °F 29.96 in SW 5.0 mph 8.0 mph 42% 0.00 in 766.00 W/m2
14:53 85.5 °F 59.8 °F 29.96 in Calm   4.0 mph 42% 0.00 in 758.00 W/m2
14:58 85.5 °F 59.8 °F 29.96 in Calm   5.0 mph 42% 0.00 in 751.00 W/m2
15:03 85.5 °F 59.8 °F 29.96 in West 8.0 mph 9.0 mph 42% 0.00 in 744.00 W/m2
15:08 85.5 °F 59.1 °F 29.96 in WNW 4.0 mph 7.0 mph 41% 0.00 in 735.00 W/m2
15:13 85.3 °F 59.0 °F 29.96 in WSW 6.0 mph 7.0 mph 41% 0.00 in 729.00 W/m2
15:18 85.1 °F 58.8 °F 29.95 in West 5.0 mph 8.0 mph 41% 0.00 in 726.00 W/m2
15:23 85.2 °F 58.9 °F 29.95 in Calm   2.0 mph 41% 0.00 in 721.00 W/m2
15:28 85.3 °F 59.0 °F 29.95 in West 1.0 mph 6.0 mph 41% 0.00 in 722.00 W/m2
15:33 85.3 °F 59.6 °F 29.95 in West 6.0 mph 7.0 mph 42% 0.00 in 728.00 W/m2
15:38 85.3 °F 60.3 °F 29.94 in West 3.0 mph 6.0 mph 43% 0.00 in 742.00 W/m2
15:43 85.1 °F 60.1 °F 29.94 in Calm   5.0 mph 43% 0.00 in 763.00 W/m2
15:48 85.1 °F 59.5 °F 29.94 in West 1.0 mph 7.0 mph 42% 0.00 in 788.00 W/m2
15:53 85.0 °F 59.4 °F 29.94 in WNW 1.0 mph 6.0 mph 42% 0.00 in 812.00 W/m2
15:58 85.0 °F 60.0 °F 29.94 in WSW 3.0 mph 6.0 mph 43% 0.00 in 833.00 W/m2
16:03 85.1 °F 60.8 °F 29.94 in Calm   5.0 mph 44% 0.00 in 635.00 W/m2
16:08 85.0 °F 60.0 °F 29.95 in Calm   4.0 mph 43% 0.00 in 466.00 W/m2
16:13 84.7 °F 59.8 °F 29.95 in West 1.0 mph 4.0 mph 43% 0.00 in 411.00 W/m2
16:18 84.4 °F 60.1 °F 29.94 in Calm     44% 0.00 in 559.00 W/m2
16:23 84.0 °F 60.4 °F 29.94 in Calm   4.0 mph 45% 0.00 in 422.00 W/m2
16:28 83.7 °F 60.1 °F 29.94 in Calm   4.0 mph 45% 0.00 in 427.00 W/m2
16:33 83.7 °F 60.7 °F 29.94 in Calm   3.0 mph 46% 0.00 in 459.00 W/m2
16:38 83.7 °F 60.7 °F 29.94 in WNW 3.0 mph 4.0 mph 46% 0.00 in 533.00 W/m2
16:43 83.7 °F 59.5 °F 29.94 in Calm   2.0 mph 44% 0.00 in 455.00 W/m2
16:48 83.8 °F 60.2 °F 29.94 in Calm     45% 0.00 in 362.00 W/m2
16:53 83.7 °F 60.1 °F 29.94 in Calm     45% 0.00 in 292.00 W/m2
16:58 83.6 °F 60.7 °F 29.94 in West 6.0 mph 6.0 mph 46% 0.00 in 283.00 W/m2
17:03 83.4 °F 60.5 °F 29.94 in Calm   3.0 mph 46% 0.00 in 262.00 W/m2
17:08 83.3 °F 60.4 °F 29.94 in Calm   3.0 mph 46% 0.00 in 287.00 W/m2
17:13 83.3 °F 60.4 °F 29.94 in Calm   3.0 mph 46% 0.00 in 248.00 W/m2
17:19 83.2 °F 60.9 °F 29.94 in Calm   3.0 mph 47% 0.00 in 234.00 W/m2
17:24 83.0 °F 60.7 °F 29.94 in Calm     47% 0.00 in 220.00 W/m2
17:29 82.8 °F 61.1 °F 29.94 in Calm     48% 0.00 in 207.00 W/m2
17:34 82.6 °F 60.9 °F 29.94 in Calm   3.0 mph 48% 0.00 in 197.00 W/m2
17:39 82.4 °F 60.2 °F 29.94 in Calm   3.0 mph 47% 0.00 in 188.00 W/m2
17:44 82.3 °F 61.2 °F 29.94 in Calm   1.0 mph 49% 0.00 in 179.00 W/m2
17:49 82.2 °F 61.2 °F 29.93 in Calm   2.0 mph 49% 0.00 in 167.00 W/m2
17:54 82.0 °F 61.0 °F 29.93 in Calm     49% 0.00 in 155.00 W/m2
17:59 81.8 °F 60.8 °F 29.93 in Calm     49% 0.00 in 148.00 W/m2
18:04 81.6 °F 60.6 °F 29.93 in Calm     49% 0.00 in 142.00 W/m2
18:09 81.4 °F 60.4 °F 29.93 in Calm     49% 0.00 in 137.00 W/m2
18:14 81.2 °F 60.2 °F 29.93 in Calm     49% 0.00 in 132.00 W/m2
18:19 81.0 °F 60.6 °F 29.93 in Calm     50% 0.00 in 127.00 W/m2
18:24 80.8 °F 61.0 °F 29.92 in Calm     51% 0.00 in 121.00 W/m2
18:29 80.6 °F 60.8 °F 29.92 in Calm     51% 0.00 in 116.00 W/m2
18:34 80.4 °F 61.2 °F 29.93 in Calm     52% 0.00 in 107.00 W/m2
18:39 80.2 °F 60.5 °F 29.93 in Calm     51% 0.00 in 98.00 W/m2
18:44 80.1 °F 60.9 °F 29.93 in Calm     52% 0.00 in 88.00 W/m2
18:49 79.8 °F 60.6 °F 29.92 in Calm     52% 0.00 in 79.00 W/m2
18:54 79.8 °F 61.2 °F 29.93 in Calm     53% 0.00 in 70.00 W/m2
18:59 79.6 °F 61.5 °F 29.93 in Calm     54% 0.00 in 62.00 W/m2
19:04 79.3 °F 61.8 °F 29.93 in Calm     55% 0.00 in 56.00 W/m2
19:09 79.1 °F 62.1 °F 29.93 in Calm     56% 0.00 in 56.00 W/m2
19:14 79.0 °F 61.5 °F 29.93 in Calm     55% 0.00 in 42.00 W/m2
19:19 78.8 °F 61.3 °F 29.93 in Calm     55% 0.00 in 33.00 W/m2
19:25 78.7 °F 61.7 °F 29.93 in Calm     56% 0.00 in 28.00 W/m2
19:30 78.3 °F 61.3 °F 29.93 in Calm     56% 0.00 in 21.00 W/m2
19:35 77.9 °F 61.0 °F 29.94 in Calm     56% 0.00 in 18.00 W/m2
19:40 77.6 °F 61.2 °F 29.94 in Calm     57% 0.00 in 16.00 W/m2
19:45 77.2 °F 60.8 °F 29.94 in Calm     57% 0.00 in 12.00 W/m2
19:50 76.9 °F 61.0 °F 29.94 in Calm     58% 0.00 in 12.00 W/m2
19:55 76.5 °F 60.6 °F 29.94 in Calm     58% 0.00 in 9.00 W/m2
20:00 76.1 °F 60.8 °F 29.94 in Calm     59% 0.00 in 0.00 W/m2
20:05 75.8 °F 60.0 °F 29.94 in Calm     58% 0.00 in 0.00 W/m2
20:10 75.7 °F 59.9 °F 29.94 in Calm     58% 0.00 in 0.00 W/m2
20:15 75.6 °F 59.8 °F 29.94 in Calm     58% 0.00 in 0.00 W/m2
20:20 75.5 °F 59.7 °F 29.94 in Calm     58% 0.00 in 0.00 W/m2
20:25 75.2 °F 59.9 °F 29.94 in Calm     59% 0.00 in 0.00 W/m2
20:26 75.2 °F 59.9 °F 29.94 in Calm     59% 0.00 in 0.00 W/m2
20:30 74.9 °F 60.1 °F 29.95 in Calm     60% 0.00 in 0.00 W/m2
20:35 74.7 °F 59.9 °F 29.95 in Calm     60% 0.00 in 0.00 W/m2
20:40 74.5 °F 59.7 °F 29.95 in Calm     60% 0.00 in 0.00 W/m2
20:45 74.3 °F 59.5 °F 29.95 in Calm     60% 0.00 in 0.00 W/m2
20:50 74.0 °F 59.2 °F 29.95 in Calm     60% 0.00 in 0.00 W/m2
20:55 73.8 °F 59.1 °F 29.95 in Calm     60% 0.00 in 0.00 W/m2
21:00 73.7 °F 59.4 °F 29.95 in Calm     61% 0.00 in 0.00 W/m2
21:05 73.7 °F 59.4 °F 29.95 in Calm     61% 0.00 in 0.00 W/m2
21:10 73.7 °F 59.4 °F 29.95 in Calm     61% 0.00 in 0.00 W/m2
21:15 73.5 °F 59.2 °F 29.95 in Calm     61% 0.00 in 0.00 W/m2
21:20 73.4 °F 59.2 °F 29.95 in Calm     61% 0.00 in 0.00 W/m2
21:25 73.3 °F 59.5 °F 29.95 in Calm     62% 0.00 in 0.00 W/m2
21:30 73.2 °F 59.4 °F 29.95 in Calm     62% 0.00 in 0.00 W/m2
21:35 73.1 °F 59.3 °F 29.95 in Calm     62% 0.00 in 0.00 W/m2
21:40 73.1 °F 59.3 °F 29.95 in Calm     62% 0.00 in 0.00 W/m2
21:45 73.1 °F 59.3 °F 29.95 in Calm     62% 0.00 in 0.00 W/m2
21:51 73.1 °F 59.3 °F 29.94 in Calm     62% 0.00 in 0.00 W/m2
21:56 73.1 °F 59.3 °F 29.94 in Calm     62% 0.00 in 0.00 W/m2
22:01 73.1 °F 58.9 °F 29.94 in Calm     61% 0.00 in 0.00 W/m2
22:06 73.1 °F 58.9 °F 29.94 in Calm     61% 0.00 in 0.00 W/m2
22:11 73.1 °F 58.9 °F 29.94 in Calm     61% 0.00 in 0.00 W/m2
22:16 73.2 °F 59.0 °F 29.94 in Calm     61% 0.00 in 0.00 W/m2
22:21 73.2 °F 59.0 °F 29.94 in Calm     61% 0.00 in 0.00 W/m2
22:26 73.2 °F 59.0 °F 29.94 in Calm     61% 0.00 in 0.00 W/m2
22:31 73.2 °F 59.0 °F 29.94 in Calm     61% 0.00 in 0.00 W/m2
22:36 73.2 °F 59.0 °F 29.94 in Calm     61% 0.00 in 0.00 W/m2
22:41 73.2 °F 59.0 °F 29.94 in SSW 2.0 mph 3.0 mph 61% 0.00 in 0.00 W/m2
22:46 73.2 °F 59.0 °F 29.94 in Calm   2.0 mph 61% 0.00 in 0.00 W/m2
22:51 73.1 °F 58.9 °F 29.94 in Calm     61% 0.00 in 0.00 W/m2
22:56 73.1 °F 58.9 °F 29.94 in ESE 4.0 mph 7.0 mph 61% 0.00 in 0.00 W/m2
23:01 73.1 °F 58.9 °F 29.94 in ESE 9.0 mph 9.0 mph 61% 0.00 in 0.00 W/m2
23:06 73.0 °F 59.2 °F 29.94 in East 1.0 mph 5.0 mph 62% 0.00 in 0.00 W/m2
23:11 73.0 °F 59.2 °F 29.94 in East 5.0 mph 5.0 mph 62% 0.00 in 0.00 W/m2
23:16 72.9 °F 59.1 °F 29.94 in East 1.0 mph 5.0 mph 62% 0.00 in 0.00 W/m2
23:21 72.9 °F 59.1 °F 29.93 in East 1.0 mph 4.0 mph 62% 0.00 in 0.00 W/m2
23:26 72.9 °F 59.1 °F 29.93 in Calm   4.0 mph 62% 0.00 in 0.00 W/m2
23:31 72.8 °F 59.0 °F 29.93 in East 1.0 mph 4.0 mph 62% 0.00 in 0.00 W/m2
23:36 72.8 °F 59.5 °F 29.93 in East 1.0 mph 5.0 mph 63% 0.00 in 0.00 W/m2
23:41 72.8 °F 59.5 °F 29.93 in East 6.0 mph 9.0 mph 63% 0.00 in 0.00 W/m2
23:46 72.8 °F 59.5 °F 29.93 in ESE 8.0 mph 8.0 mph 63% 0.00 in 0.00 W/m2
23:51 72.8 °F 59.5 °F 29.94 in East 2.0 mph 8.0 mph 63% 0.00 in 0.00 W/m2
23:56 72.8 °F 59.0 °F 29.94 in East 5.0 mph 5.0 mph 62% 0.00 in 0.00 W/m2
Foresthill Weather
 WU-history PHP script courtesy of   Juneau County Weather.
powered by Cumulus v1.9.3 (1059)
Ambient Weather VWS v14.00
Top Contact Website Map Copyright © 2007 - 2018 Foresthillweather.com Never base important decisions on this or any weather information obtained from the Internet